Drayden, Maryland
Current Conditions -  °F | °C
As of 9:53 PM on Monday 20 Oct 2014 (Local Time) from KNUI Reporting Station
Clear Clear  
Wind Chill: 60°   Ceiling: Unl
Heat Index: 60°   Visibility: 10mi
Dew Point: 44°   Wind: 6mph
Humidity: 55%   Direction: 160°SSE
Pressure: 29.97"   Gusts: NA
Location:  38.18°N, 76.48°W
Report Text: KNUI 210153Z AUTO 16005KT 10SM CLR 16/07 A2997 RMK AO2 SLP149 T01560067
Loading
Personal Weather Stations






























Interactive Weather Map
Tropical Storm Tracking
New forecast layout! Learn more

10-Day Weather Forecast

Advertisements
Track Severe Weather on mobile